sensor_id;sensor_type;location;lat;lon;timestamp;P1;durP1;ratioP1;P2;durP2;ratioP2
18360;SDS011;9308;48.550;9.108;2022-11-20T00:01:40;6.07;;;5.57;;
18360;SDS011;9308;48.550;9.108;2022-11-20T00:04:05;7.00;;;5.47;;
18360;SDS011;9308;48.550;9.108;2022-11-20T00:06:31;6.13;;;5.63;;
18360;SDS011;9308;48.550;9.108;2022-11-20T00:08:58;6.37;;;5.77;;
18360;SDS011;9308;48.550;9.108;2022-11-20T00:11:25;6.43;;;5.83;;
18360;SDS011;9308;48.550;9.108;2022-11-20T00:13:55;7.13;;;6.53;;
18360;SDS011;9308;48.550;9.108;2022-11-20T00:16:23;8.20;;;7.47;;
18360;SDS011;9308;48.550;9.108;2022-11-20T00:18:49;8.60;;;7.90;;
18360;SDS011;9308;48.550;9.108;2022-11-20T00:21:20;6.33;;;5.83;;
18360;SDS011;9308;48.550;9.108;2022-11-20T00:23:46;6.03;;;5.60;;
18360;SDS011;9308;48.550;9.108;2022-11-20T00:26:13;11.50;;;5.37;;
18360;SDS011;9308;48.550;9.108;2022-11-20T00:28:40;7.80;;;5.70;;
18360;SDS011;9308;48.550;9.108;2022-11-20T00:31:11;7.20;;;6.57;;
18360;SDS011;9308;48.550;9.108;2022-11-20T00:33:39;6.00;;;5.37;;
18360;SDS011;9308;48.550;9.108;2022-11-20T00:36:06;5.97;;;5.47;;
18360;SDS011;9308;48.550;9.108;2022-11-20T00:38:33;6.20;;;5.70;;
18360;SDS011;9308;48.550;9.108;2022-11-20T00:40:59;6.60;;;6.00;;
18360;SDS011;9308;48.550;9.108;2022-11-20T00:43:26;6.00;;;5.50;;
18360;SDS011;9308;48.550;9.108;2022-11-20T00:45:56;6.70;;;6.10;;
18360;SDS011;9308;48.550;9.108;2022-11-20T00:48:22;6.50;;;5.90;;
18360;SDS011;9308;48.550;9.108;2022-11-20T00:50:48;6.83;;;6.10;;
18360;SDS011;9308;48.550;9.108;2022-11-20T00:53:13;6.10;;;5.60;;
18360;SDS011;9308;48.550;9.108;2022-11-20T00:55:39;6.67;;;5.97;;
18360;SDS011;9308;48.550;9.108;2022-11-20T00:58:04;6.60;;;6.10;;
18360;SDS011;9308;48.550;9.108;2022-11-20T01:00:30;6.90;;;6.30;;
18360;SDS011;9308;48.550;9.108;2022-11-20T01:02:55;6.50;;;6.00;;
18360;SDS011;9308;48.550;9.108;2022-11-20T01:05:21;9.10;;;6.23;;
18360;SDS011;9308;48.550;9.108;2022-11-20T01:07:46;8.37;;;6.90;;
18360;SDS011;9308;48.550;9.108;2022-11-20T01:10:12;6.30;;;5.70;;
18360;SDS011;9308;48.550;9.108;2022-11-20T01:12:37;6.47;;;5.97;;
18360;SDS011;9308;48.550;9.108;2022-11-20T01:15:03;6.90;;;6.20;;
18360;SDS011;9308;48.550;9.108;2022-11-20T01:17:28;8.33;;;6.30;;
18360;SDS011;9308;48.550;9.108;2022-11-20T01:19:55;8.53;;;6.60;;
18360;SDS011;9308;48.550;9.108;2022-11-20T01:22:21;7.10;;;6.40;;
18360;SDS011;9308;48.550;9.108;2022-11-20T01:24:46;7.60;;;6.90;;
18360;SDS011;9308;48.550;9.108;2022-11-20T01:27:12;8.10;;;7.40;;
18360;SDS011;9308;48.550;9.108;2022-11-20T01:29:37;8.63;;;7.70;;
18360;SDS011;9308;48.550;9.108;2022-11-20T01:32:03;7.53;;;6.87;;
18360;SDS011;9308;48.550;9.108;2022-11-20T01:34:28;7.17;;;6.57;;
18360;SDS011;9308;48.550;9.108;2022-11-20T01:36:54;6.97;;;6.37;;
18360;SDS011;9308;48.550;9.108;2022-11-20T01:39:21;7.70;;;7.00;;
18360;SDS011;9308;48.550;9.108;2022-11-20T01:41:49;7.80;;;7.10;;
18360;SDS011;9308;48.550;9.108;2022-11-20T01:44:53;8.53;;;7.50;;
18360;SDS011;9308;48.550;9.108;2022-11-20T01:47:35;8.53;;;7.73;;
18360;SDS011;9308;48.550;9.108;2022-11-20T01:50:12;8.10;;;7.40;;
18360;SDS011;9308;48.550;9.108;2022-11-20T01:52:50;8.20;;;7.50;;
18360;SDS011;9308;48.550;9.108;2022-11-20T01:55:22;9.33;;;7.27;;
18360;SDS011;9308;48.550;9.108;2022-11-20T01:57:50;8.33;;;7.63;;
18360;SDS011;9308;48.550;9.108;2022-11-20T02:00:17;8.70;;;7.80;;
18360;SDS011;9308;48.550;9.108;2022-11-20T02:02:46;9.00;;;8.30;;
18360;SDS011;9308;48.550;9.108;2022-11-20T02:05:25;9.53;;;8.63;;
18360;SDS011;9308;48.550;9.108;2022-11-20T02:08:11;8.27;;;7.57;;
18360;SDS011;9308;48.550;9.108;2022-11-20T02:10:37;9.50;;;8.60;;
18360;SDS011;9308;48.550;9.108;2022-11-20T02:13:03;8.73;;;7.97;;
18360;SDS011;9308;48.550;9.108;2022-11-20T02:15:47;9.80;;;8.90;;
18360;SDS011;9308;48.550;9.108;2022-11-20T02:18:14;9.20;;;8.50;;
18360;SDS011;9308;48.550;9.108;2022-11-20T02:20:42;9.97;;;9.07;;
18360;SDS011;9308;48.550;9.108;2022-11-20T02:23:32;9.17;;;8.37;;
18360;SDS011;9308;48.550;9.108;2022-11-20T02:26:03;8.93;;;7.97;;
18360;SDS011;9308;48.550;9.108;2022-11-20T02:28:32;10.30;;;9.40;;
18360;SDS011;9308;48.550;9.108;2022-11-20T02:30:57;9.40;;;8.60;;
18360;SDS011;9308;48.550;9.108;2022-11-20T02:33:23;9.30;;;8.10;;
18360;SDS011;9308;48.550;9.108;2022-11-20T02:35:48;9.30;;;8.50;;
18360;SDS011;9308;48.550;9.108;2022-11-20T02:38:14;8.93;;;8.17;;
18360;SDS011;9308;48.550;9.108;2022-11-20T02:40:40;8.40;;;7.70;;
18360;SDS011;9308;48.550;9.108;2022-11-20T02:43:06;8.20;;;7.50;;
18360;SDS011;9308;48.550;9.108;2022-11-20T02:45:32;8.50;;;7.70;;
18360;SDS011;9308;48.550;9.108;2022-11-20T02:47:58;9.00;;;8.10;;
18360;SDS011;9308;48.550;9.108;2022-11-20T02:50:23;9.10;;;7.63;;
18360;SDS011;9308;48.550;9.108;2022-11-20T02:52:50;10.03;;;8.10;;
18360;SDS011;9308;48.550;9.108;2022-11-20T02:55:15;8.53;;;7.83;;
18360;SDS011;9308;48.550;9.108;2022-11-20T02:57:40;11.53;;;7.40;;
18360;SDS011;9308;48.550;9.108;2022-11-20T03:00:06;7.97;;;7.27;;
18360;SDS011;9308;48.550;9.108;2022-11-20T03:02:32;8.27;;;7.07;;
18360;SDS011;9308;48.550;9.108;2022-11-20T03:04:58;7.13;;;6.63;;
18360;SDS011;9308;48.550;9.108;2022-11-20T03:07:24;7.53;;;6.77;;
18360;SDS011;9308;48.550;9.108;2022-11-20T03:09:49;7.53;;;6.90;;
18360;SDS011;9308;48.550;9.108;2022-11-20T03:12:15;7.97;;;7.17;;
18360;SDS011;9308;48.550;9.108;2022-11-20T03:14:40;7.83;;;6.77;;
18360;SDS011;9308;48.550;9.108;2022-11-20T03:17:06;7.47;;;6.90;;
18360;SDS011;9308;48.550;9.108;2022-11-20T03:19:31;7.03;;;6.50;;
18360;SDS011;9308;48.550;9.108;2022-11-20T03:21:57;6.33;;;5.73;;
18360;SDS011;9308;48.550;9.108;2022-11-20T03:24:22;6.23;;;5.63;;
18360;SDS011;9308;48.550;9.108;2022-11-20T03:26:47;6.20;;;5.80;;
18360;SDS011;9308;48.550;9.108;2022-11-20T03:29:13;6.10;;;5.60;;
18360;SDS011;9308;48.550;9.108;2022-11-20T03:31:39;6.57;;;5.97;;
18360;SDS011;9308;48.550;9.108;2022-11-20T03:34:06;6.03;;;5.30;;
18360;SDS011;9308;48.550;9.108;2022-11-20T03:36:32;5.43;;;5.03;;
18360;SDS011;9308;48.550;9.108;2022-11-20T03:38:58;5.27;;;4.87;;
18360;SDS011;9308;48.550;9.108;2022-11-20T03:41:25;6.30;;;5.50;;
18360;SDS011;9308;48.550;9.108;2022-11-20T03:43:56;5.70;;;5.17;;
18360;SDS011;9308;48.550;9.108;2022-11-20T03:46:23;6.80;;;4.90;;
18360;SDS011;9308;48.550;9.108;2022-11-20T03:48:50;4.83;;;4.43;;
18360;SDS011;9308;48.550;9.108;2022-11-20T03:51:17;5.97;;;5.37;;
18360;SDS011;9308;48.550;9.108;2022-11-20T03:53:46;4.50;;;4.07;;
18360;SDS011;9308;48.550;9.108;2022-11-20T03:56:13;5.07;;;4.67;;
18360;SDS011;9308;48.550;9.108;2022-11-20T03:58:41;5.03;;;4.43;;
18360;SDS011;9308;48.550;9.108;2022-11-20T04:01:11;4.80;;;4.40;;
18360;SDS011;9308;48.550;9.108;2022-11-20T04:03:39;5.07;;;4.67;;
18360;SDS011;9308;48.550;9.108;2022-11-20T04:06:07;5.07;;;4.67;;
18360;SDS011;9308;48.550;9.108;2022-11-20T04:08:37;5.20;;;4.70;;
18360;SDS011;9308;48.550;9.108;2022-11-20T04:11:16;5.40;;;4.90;;
18360;SDS011;9308;48.550;9.108;2022-11-20T04:13:45;5.43;;;4.47;;
18360;SDS011;9308;48.550;9.108;2022-11-20T04:16:13;4.83;;;4.53;;
18360;SDS011;9308;48.550;9.108;2022-11-20T04:18:39;5.93;;;4.33;;
18360;SDS011;9308;48.550;9.108;2022-11-20T04:21:04;4.73;;;4.33;;
18360;SDS011;9308;48.550;9.108;2022-11-20T04:23:31;4.83;;;4.33;;
18360;SDS011;9308;48.550;9.108;2022-11-20T04:26:03;5.00;;;4.57;;
18360;SDS011;9308;48.550;9.108;2022-11-20T04:28:30;6.30;;;5.03;;
18360;SDS011;9308;48.550;9.108;2022-11-20T04:31:06;4.93;;;4.53;;
18360;SDS011;9308;48.550;9.108;2022-11-20T04:33:36;4.77;;;4.37;;
18360;SDS011;9308;48.550;9.108;2022-11-20T04:36:12;4.90;;;4.43;;
18360;SDS011;9308;48.550;9.108;2022-11-20T04:38:42;4.23;;;3.93;;
18360;SDS011;9308;48.550;9.108;2022-11-20T04:41:08;5.10;;;4.70;;
18360;SDS011;9308;48.550;9.108;2022-11-20T04:43:39;4.10;;;3.80;;
18360;SDS011;9308;48.550;9.108;2022-11-20T04:46:05;5.13;;;4.73;;
18360;SDS011;9308;48.550;9.108;2022-11-20T04:48:30;4.77;;;4.37;;
18360;SDS011;9308;48.550;9.108;2022-11-20T04:50:55;4.63;;;4.23;;
18360;SDS011;9308;48.550;9.108;2022-11-20T04:53:22;5.67;;;5.17;;
18360;SDS011;9308;48.550;9.108;2022-11-20T04:55:47;4.87;;;4.47;;
18360;SDS011;9308;48.550;9.108;2022-11-20T04:58:13;5.40;;;4.50;;
18360;SDS011;9308;48.550;9.108;2022-11-20T05:00:39;4.73;;;4.40;;
18360;SDS011;9308;48.550;9.108;2022-11-20T05:03:05;5.33;;;4.93;;
18360;SDS011;9308;48.550;9.108;2022-11-20T05:05:30;4.73;;;4.43;;
18360;SDS011;9308;48.550;9.108;2022-11-20T05:07:57;5.07;;;4.67;;
18360;SDS011;9308;48.550;9.108;2022-11-20T05:10:23;4.67;;;4.37;;
18360;SDS011;9308;48.550;9.108;2022-11-20T05:12:49;5.10;;;4.70;;
18360;SDS011;9308;48.550;9.108;2022-11-20T05:15:14;4.87;;;4.47;;
18360;SDS011;9308;48.550;9.108;2022-11-20T05:17:40;4.90;;;4.40;;
18360;SDS011;9308;48.550;9.108;2022-11-20T05:20:05;4.97;;;4.60;;
18360;SDS011;9308;48.550;9.108;2022-11-20T05:22:31;4.30;;;4.00;;
18360;SDS011;9308;48.550;9.108;2022-11-20T05:24:57;4.40;;;4.00;;
18360;SDS011;9308;48.550;9.108;2022-11-20T05:27:22;4.60;;;4.20;;
18360;SDS011;9308;48.550;9.108;2022-11-20T05:29:48;3.93;;;3.63;;
18360;SDS011;9308;48.550;9.108;2022-11-20T05:32:13;4.27;;;3.97;;
18360;SDS011;9308;48.550;9.108;2022-11-20T05:34:39;4.47;;;4.07;;
18360;SDS011;9308;48.550;9.108;2022-11-20T05:37:04;4.80;;;4.13;;
18360;SDS011;9308;48.550;9.108;2022-11-20T05:39:30;4.13;;;3.80;;
18360;SDS011;9308;48.550;9.108;2022-11-20T05:41:55;4.50;;;3.70;;
18360;SDS011;9308;48.550;9.108;2022-11-20T05:44:39;4.47;;;4.17;;
18360;SDS011;9308;48.550;9.108;2022-11-20T05:47:05;4.50;;;4.10;;
18360;SDS011;9308;48.550;9.108;2022-11-20T05:49:31;5.77;;;5.37;;
18360;SDS011;9308;48.550;9.108;2022-11-20T05:51:57;5.30;;;4.90;;
18360;SDS011;9308;48.550;9.108;2022-11-20T05:54:22;4.23;;;3.93;;
18360;SDS011;9308;48.550;9.108;2022-11-20T05:56:47;5.07;;;4.67;;
18360;SDS011;9308;48.550;9.108;2022-11-20T05:59:13;4.87;;;4.47;;
18360;SDS011;9308;48.550;9.108;2022-11-20T06:01:38;3.93;;;3.63;;
18360;SDS011;9308;48.550;9.108;2022-11-20T06:04:04;4.07;;;3.70;;
18360;SDS011;9308;48.550;9.108;2022-11-20T06:06:29;4.30;;;3.90;;
18360;SDS011;9308;48.550;9.108;2022-11-20T06:08:55;4.30;;;3.90;;
18360;SDS011;9308;48.550;9.108;2022-11-20T06:11:20;3.93;;;3.63;;
18360;SDS011;9308;48.550;9.108;2022-11-20T06:13:47;3.57;;;3.30;;
18360;SDS011;9308;48.550;9.108;2022-11-20T06:16:13;3.70;;;3.40;;
18360;SDS011;9308;48.550;9.108;2022-11-20T06:18:40;4.00;;;3.70;;
18360;SDS011;9308;48.550;9.108;2022-11-20T06:21:09;3.70;;;3.40;;
18360;SDS011;9308;48.550;9.108;2022-11-20T06:23:37;3.70;;;3.40;;
18360;SDS011;9308;48.550;9.108;2022-11-20T06:26:04;3.57;;;3.37;;
18360;SDS011;9308;48.550;9.108;2022-11-20T06:28:31;3.70;;;3.40;;
18360;SDS011;9308;48.550;9.108;2022-11-20T06:30:57;3.80;;;3.60;;
18360;SDS011;9308;48.550;9.108;2022-11-20T06:33:23;4.97;;;4.20;;
18360;SDS011;9308;48.550;9.108;2022-11-20T06:35:48;3.93;;;3.63;;
18360;SDS011;9308;48.550;9.108;2022-11-20T06:38:14;4.10;;;3.67;;
18360;SDS011;9308;48.550;9.108;2022-11-20T06:40:40;6.73;;;3.73;;
18360;SDS011;9308;48.550;9.108;2022-11-20T06:43:06;4.03;;;3.67;;
18360;SDS011;9308;48.550;9.108;2022-11-20T06:45:31;5.33;;;3.47;;
18360;SDS011;9308;48.550;9.108;2022-11-20T06:47:57;3.60;;;3.30;;
18360;SDS011;9308;48.550;9.108;2022-11-20T06:50:23;3.50;;;3.20;;
18360;SDS011;9308;48.550;9.108;2022-11-20T06:52:49;3.80;;;3.50;;
18360;SDS011;9308;48.550;9.108;2022-11-20T06:55:14;4.13;;;3.83;;
18360;SDS011;9308;48.550;9.108;2022-11-20T06:57:39;4.30;;;3.90;;
18360;SDS011;9308;48.550;9.108;2022-11-20T07:00:05;3.67;;;3.47;;
18360;SDS011;9308;48.550;9.108;2022-11-20T07:02:31;3.77;;;3.17;;
18360;SDS011;9308;48.550;9.108;2022-11-20T07:07:24;4.13;;;3.00;;
18360;SDS011;9308;48.550;9.108;2022-11-20T07:09:50;3.67;;;3.20;;
18360;SDS011;9308;48.550;9.108;2022-11-20T07:12:15;3.17;;;2.97;;
18360;SDS011;9308;48.550;9.108;2022-11-20T07:14:41;3.20;;;2.90;;
18360;SDS011;9308;48.550;9.108;2022-11-20T07:17:06;5.10;;;3.20;;
18360;SDS011;9308;48.550;9.108;2022-11-20T07:19:32;3.80;;;3.50;;
18360;SDS011;9308;48.550;9.108;2022-11-20T07:21:57;3.03;;;2.83;;
18360;SDS011;9308;48.550;9.108;2022-11-20T07:24:23;3.63;;;3.33;;
18360;SDS011;9308;48.550;9.108;2022-11-20T07:26:48;3.77;;;3.50;;
18360;SDS011;9308;48.550;9.108;2022-11-20T07:29:14;3.77;;;3.47;;
18360;SDS011;9308;48.550;9.108;2022-11-20T07:31:40;3.70;;;3.40;;
18360;SDS011;9308;48.550;9.108;2022-11-20T07:34:05;4.07;;;3.70;;
18360;SDS011;9308;48.550;9.108;2022-11-20T07:36:31;3.23;;;3.03;;
18360;SDS011;9308;48.550;9.108;2022-11-20T07:38:56;3.50;;;3.23;;
18360;SDS011;9308;48.550;9.108;2022-11-20T07:41:22;2.60;;;2.50;;
18360;SDS011;9308;48.550;9.108;2022-11-20T07:43:47;3.07;;;2.87;;
18360;SDS011;9308;48.550;9.108;2022-11-20T07:46:13;2.90;;;2.70;;
18360;SDS011;9308;48.550;9.108;2022-11-20T07:48:38;3.13;;;2.93;;
18360;SDS011;9308;48.550;9.108;2022-11-20T07:51:04;3.20;;;3.00;;
18360;SDS011;9308;48.550;9.108;2022-11-20T07:53:30;3.90;;;3.50;;
18360;SDS011;9308;48.550;9.108;2022-11-20T07:55:58;3.43;;;3.23;;
18360;SDS011;9308;48.550;9.108;2022-11-20T07:58:25;3.00;;;2.80;;
18360;SDS011;9308;48.550;9.108;2022-11-20T08:00:50;3.20;;;2.90;;
18360;SDS011;9308;48.550;9.108;2022-11-20T08:03:16;3.30;;;3.10;;
18360;SDS011;9308;48.550;9.108;2022-11-20T08:05:41;2.90;;;2.70;;
18360;SDS011;9308;48.550;9.108;2022-11-20T08:08:07;2.90;;;2.70;;
18360;SDS011;9308;48.550;9.108;2022-11-20T08:10:33;2.70;;;2.57;;
18360;SDS011;9308;48.550;9.108;2022-11-20T08:12:58;3.00;;;2.80;;
18360;SDS011;9308;48.550;9.108;2022-11-20T08:15:47;3.40;;;3.20;;
18360;SDS011;9308;48.550;9.108;2022-11-20T08:18:15;3.20;;;3.00;;
18360;SDS011;9308;48.550;9.108;2022-11-20T08:20:40;2.83;;;2.60;;
18360;SDS011;9308;48.550;9.108;2022-11-20T08:23:06;3.00;;;2.80;;
18360;SDS011;9308;48.550;9.108;2022-11-20T08:25:34;2.60;;;2.40;;
18360;SDS011;9308;48.550;9.108;2022-11-20T08:28:04;3.10;;;2.90;;
18360;SDS011;9308;48.550;9.108;2022-11-20T08:30:31;3.00;;;2.80;;
18360;SDS011;9308;48.550;9.108;2022-11-20T08:33:04;3.20;;;3.00;;
18360;SDS011;9308;48.550;9.108;2022-11-20T08:35:33;3.13;;;2.83;;
18360;SDS011;9308;48.550;9.108;2022-11-20T08:38:00;3.17;;;2.87;;
18360;SDS011;9308;48.550;9.108;2022-11-20T08:40:27;2.40;;;2.30;;
18360;SDS011;9308;48.550;9.108;2022-11-20T08:42:52;2.77;;;2.67;;
18360;SDS011;9308;48.550;9.108;2022-11-20T08:45:18;3.00;;;2.80;;
18360;SDS011;9308;48.550;9.108;2022-11-20T08:47:45;2.87;;;2.63;;
18360;SDS011;9308;48.550;9.108;2022-11-20T08:50:11;2.97;;;2.73;;
18360;SDS011;9308;48.550;9.108;2022-11-20T08:52:38;3.80;;;2.63;;
18360;SDS011;9308;48.550;9.108;2022-11-20T08:55:04;3.10;;;2.90;;
18360;SDS011;9308;48.550;9.108;2022-11-20T08:57:31;3.30;;;3.00;;
18360;SDS011;9308;48.550;9.108;2022-11-20T09:00:00;4.40;;;4.00;;
18360;SDS011;9308;48.550;9.108;2022-11-20T09:02:26;5.70;;;5.13;;
18360;SDS011;9308;48.550;9.108;2022-11-20T09:04:52;5.00;;;3.30;;
18360;SDS011;9308;48.550;9.108;2022-11-20T09:07:18;3.90;;;3.60;;
18360;SDS011;9308;48.550;9.108;2022-11-20T09:09:44;4.20;;;3.90;;
18360;SDS011;9308;48.550;9.108;2022-11-20T09:12:09;4.20;;;3.87;;
18360;SDS011;9308;48.550;9.108;2022-11-20T09:14:35;4.33;;;4.03;;
18360;SDS011;9308;48.550;9.108;2022-11-20T09:17:00;3.53;;;3.23;;
18360;SDS011;9308;48.550;9.108;2022-11-20T09:19:26;3.27;;;3.07;;
18360;SDS011;9308;48.550;9.108;2022-11-20T09:21:51;3.37;;;3.07;;
18360;SDS011;9308;48.550;9.108;2022-11-20T09:24:17;3.70;;;3.43;;
18360;SDS011;9308;48.550;9.108;2022-11-20T09:26:43;3.60;;;3.40;;
18360;SDS011;9308;48.550;9.108;2022-11-20T09:29:09;4.97;;;4.57;;
18360;SDS011;9308;48.550;9.108;2022-11-20T09:31:34;3.50;;;3.30;;
18360;SDS011;9308;48.550;9.108;2022-11-20T09:33:59;3.97;;;3.60;;
18360;SDS011;9308;48.550;9.108;2022-11-20T09:36:25;4.43;;;4.13;;
18360;SDS011;9308;48.550;9.108;2022-11-20T09:38:51;4.20;;;3.90;;
18360;SDS011;9308;48.550;9.108;2022-11-20T09:42:04;3.77;;;3.47;;
18360;SDS011;9308;48.550;9.108;2022-11-20T09:44:34;4.50;;;4.10;;
18360;SDS011;9308;48.550;9.108;2022-11-20T09:47:02;3.13;;;2.93;;
18360;SDS011;9308;48.550;9.108;2022-11-20T09:50:10;3.53;;;2.87;;
18360;SDS011;9308;48.550;9.108;2022-11-20T09:53:02;3.20;;;3.00;;
18360;SDS011;9308;48.550;9.108;2022-11-20T09:55:36;3.60;;;3.30;;
18360;SDS011;9308;48.550;9.108;2022-11-20T09:58:05;3.10;;;2.80;;
18360;SDS011;9308;48.550;9.108;2022-11-20T10:00:31;4.07;;;3.77;;
18360;SDS011;9308;48.550;9.108;2022-11-20T10:03:06;3.80;;;3.57;;
18360;SDS011;9308;48.550;9.108;2022-11-20T10:05:47;3.83;;;3.63;;
18360;SDS011;9308;48.550;9.108;2022-11-20T10:08:25;3.20;;;3.00;;
18360;SDS011;9308;48.550;9.108;2022-11-20T10:14:07;3.30;;;3.10;;
18360;SDS011;9308;48.550;9.108;2022-11-20T10:22:35;2.97;;;2.77;;
18360;SDS011;9308;48.550;9.108;2022-11-20T10:25:19;3.43;;;3.23;;
18360;SDS011;9308;48.550;9.108;2022-11-20T10:27:58;3.50;;;2.93;;
18360;SDS011;9308;48.550;9.108;2022-11-20T10:30:43;2.90;;;2.40;;
18360;SDS011;9308;48.550;9.108;2022-11-20T10:33:17;2.53;;;2.33;;
18360;SDS011;9308;48.550;9.108;2022-11-20T10:35:55;2.60;;;2.40;;
18360;SDS011;9308;48.550;9.108;2022-11-20T10:38:30;3.20;;;3.00;;
18360;SDS011;9308;48.550;9.108;2022-11-20T10:41:00;2.70;;;2.50;;
18360;SDS011;9308;48.550;9.108;2022-11-20T10:43:46;2.30;;;2.20;;
18360;SDS011;9308;48.550;9.108;2022-11-20T10:46:17;3.23;;;2.80;;
18360;SDS011;9308;48.550;9.108;2022-11-20T10:48:45;2.60;;;2.40;;
18360;SDS011;9308;48.550;9.108;2022-11-20T10:51:30;2.77;;;2.57;;
18360;SDS011;9308;48.550;9.108;2022-11-20T10:54:11;2.17;;;2.07;;
18360;SDS011;9308;48.550;9.108;2022-11-20T10:56:58;2.53;;;2.33;;
18360;SDS011;9308;48.550;9.108;2022-11-20T11:02:42;2.70;;;2.50;;
18360;SDS011;9308;48.550;9.108;2022-11-20T11:07:45;2.07;;;1.93;;
18360;SDS011;9308;48.550;9.108;2022-11-20T11:10:36;2.13;;;2.03;;
18360;SDS011;9308;48.550;9.108;2022-11-20T11:13:06;2.70;;;2.50;;
18360;SDS011;9308;48.550;9.108;2022-11-20T11:15:39;2.40;;;2.20;;
18360;SDS011;9308;48.550;9.108;2022-11-20T11:18:10;2.27;;;2.10;;
18360;SDS011;9308;48.550;9.108;2022-11-20T11:20:36;3.17;;;2.83;;
18360;SDS011;9308;48.550;9.108;2022-11-20T11:23:02;2.60;;;2.40;;
18360;SDS011;9308;48.550;9.108;2022-11-20T11:25:36;2.30;;;2.10;;
18360;SDS011;9308;48.550;9.108;2022-11-20T11:28:03;2.23;;;2.10;;
18360;SDS011;9308;48.550;9.108;2022-11-20T11:30:44;2.10;;;2.00;;
18360;SDS011;9308;48.550;9.108;2022-11-20T11:33:18;2.80;;;2.60;;
18360;SDS011;9308;48.550;9.108;2022-11-20T11:35:50;1.97;;;1.87;;
18360;SDS011;9308;48.550;9.108;2022-11-20T11:38:36;1.97;;;1.87;;
18360;SDS011;9308;48.550;9.108;2022-11-20T11:41:04;2.40;;;2.20;;
18360;SDS011;9308;48.550;9.108;2022-11-20T11:43:32;2.17;;;1.97;;
18360;SDS011;9308;48.550;9.108;2022-11-20T11:48:59;2.30;;;2.07;;
18360;SDS011;9308;48.550;9.108;2022-11-20T11:51:28;2.20;;;2.10;;
18360;SDS011;9308;48.550;9.108;2022-11-20T11:53:58;2.87;;;1.90;;
18360;SDS011;9308;48.550;9.108;2022-11-20T11:56:24;2.20;;;1.90;;
18360;SDS011;9308;48.550;9.108;2022-11-20T11:58:51;1.70;;;1.60;;
18360;SDS011;9308;48.550;9.108;2022-11-20T12:01:37;2.20;;;1.87;;
18360;SDS011;9308;48.550;9.108;2022-11-20T12:07:03;1.50;;;1.40;;
18360;SDS011;9308;48.550;9.108;2022-11-20T12:09:37;1.20;;;1.20;;
18360;SDS011;9308;48.550;9.108;2022-11-20T12:12:18;2.00;;;1.90;;
18360;SDS011;9308;48.550;9.108;2022-11-20T12:14:47;2.30;;;1.80;;
18360;SDS011;9308;48.550;9.108;2022-11-20T12:17:15;1.77;;;1.67;;
18360;SDS011;9308;48.550;9.108;2022-11-20T12:19:40;3.40;;;2.13;;
18360;SDS011;9308;48.550;9.108;2022-11-20T12:24:59;2.43;;;2.23;;
18360;SDS011;9308;48.550;9.108;2022-11-20T12:30:27;2.03;;;1.80;;
18360;SDS011;9308;48.550;9.108;2022-11-20T12:33:02;2.33;;;1.90;;
18360;SDS011;9308;48.550;9.108;2022-11-20T12:39:05;1.70;;;1.60;;
18360;SDS011;9308;48.550;9.108;2022-11-20T12:44:29;3.63;;;1.70;;
18360;SDS011;9308;48.550;9.108;2022-11-20T12:50:37;3.60;;;1.60;;
18360;SDS011;9308;48.550;9.108;2022-11-20T12:59:10;4.50;;;4.10;;
18360;SDS011;9308;48.550;9.108;2022-11-20T13:07:02;2.90;;;2.63;;
18360;SDS011;9308;48.550;9.108;2022-11-20T13:09:30;2.20;;;2.00;;
18360;SDS011;9308;48.550;9.108;2022-11-20T13:14:33;4.50;;;2.50;;
18360;SDS011;9308;48.550;9.108;2022-11-20T13:19:37;1.90;;;1.80;;
18360;SDS011;9308;48.550;9.108;2022-11-20T13:22:03;2.60;;;1.77;;
18360;SDS011;9308;48.550;9.108;2022-11-20T13:24:30;1.90;;;1.80;;
18360;SDS011;9308;48.550;9.108;2022-11-20T13:29:34;2.00;;;1.90;;
18360;SDS011;9308;48.550;9.108;2022-11-20T13:32:22;2.97;;;1.97;;
18360;SDS011;9308;48.550;9.108;2022-11-20T13:37:36;2.03;;;1.63;;
18360;SDS011;9308;48.550;9.108;2022-11-20T13:45:11;2.10;;;1.90;;
18360;SDS011;9308;48.550;9.108;2022-11-20T13:47:48;6.13;;;5.63;;
18360;SDS011;9308;48.550;9.108;2022-11-20T13:50:15;2.70;;;2.50;;
18360;SDS011;9308;48.550;9.108;2022-11-20T13:52:50;1.90;;;1.80;;
18360;SDS011;9308;48.550;9.108;2022-11-20T13:55:38;1.97;;;1.87;;
18360;SDS011;9308;48.550;9.108;2022-11-20T14:01:23;3.80;;;3.50;;
18360;SDS011;9308;48.550;9.108;2022-11-20T14:03:41;6.93;;;4.67;;
18360;SDS011;9308;48.550;9.108;2022-11-20T14:06:29;3.37;;;3.17;;
18360;SDS011;9308;48.550;9.108;2022-11-20T14:08:56;4.60;;;4.30;;
18360;SDS011;9308;48.550;9.108;2022-11-20T14:11:26;6.57;;;6.03;;
18360;SDS011;9308;48.550;9.108;2022-11-20T14:13:55;5.60;;;5.13;;
18360;SDS011;9308;48.550;9.108;2022-11-20T14:16:21;4.90;;;4.00;;
18360;SDS011;9308;48.550;9.108;2022-11-20T14:18:47;5.70;;;5.20;;
18360;SDS011;9308;48.550;9.108;2022-11-20T14:21:21;6.37;;;5.77;;
18360;SDS011;9308;48.550;9.108;2022-11-20T14:24:06;4.10;;;3.70;;
18360;SDS011;9308;48.550;9.108;2022-11-20T14:26:35;4.20;;;4.00;;
18360;SDS011;9308;48.550;9.108;2022-11-20T14:29:11;4.60;;;4.17;;
18360;SDS011;9308;48.550;9.108;2022-11-20T14:31:38;3.63;;;2.40;;
18360;SDS011;9308;48.550;9.108;2022-11-20T14:34:04;2.80;;;2.60;;
18360;SDS011;9308;48.550;9.108;2022-11-20T14:36:29;3.10;;;2.60;;
18360;SDS011;9308;48.550;9.108;2022-11-20T14:38:55;3.07;;;2.23;;
18360;SDS011;9308;48.550;9.108;2022-11-20T14:41:23;2.53;;;2.33;;
18360;SDS011;9308;48.550;9.108;2022-11-20T14:43:54;2.73;;;2.53;;
18360;SDS011;9308;48.550;9.108;2022-11-20T14:46:22;3.10;;;2.60;;
18360;SDS011;9308;48.550;9.108;2022-11-20T14:48:52;2.60;;;2.40;;
18360;SDS011;9308;48.550;9.108;2022-11-20T14:51:24;4.10;;;3.90;;
18360;SDS011;9308;48.550;9.108;2022-11-20T14:54:07;2.90;;;2.30;;
18360;SDS011;9308;48.550;9.108;2022-11-20T14:56:37;2.70;;;2.43;;
18360;SDS011;9308;48.550;9.108;2022-11-20T14:59:03;2.90;;;2.17;;
18360;SDS011;9308;48.550;9.108;2022-11-20T15:01:30;2.30;;;2.20;;
18360;SDS011;9308;48.550;9.108;2022-11-20T15:04:00;3.00;;;2.70;;
18360;SDS011;9308;48.550;9.108;2022-11-20T15:06:30;4.23;;;3.70;;
18360;SDS011;9308;48.550;9.108;2022-11-20T15:08:56;3.40;;;3.20;;
18360;SDS011;9308;48.550;9.108;2022-11-20T15:11:27;4.10;;;3.80;;
18360;SDS011;9308;48.550;9.108;2022-11-20T15:13:55;4.10;;;3.73;;
18360;SDS011;9308;48.550;9.108;2022-11-20T15:16:22;4.70;;;4.30;;
18360;SDS011;9308;48.550;9.108;2022-11-20T15:18:49;15.43;;;13.93;;
18360;SDS011;9308;48.550;9.108;2022-11-20T15:21:15;30.47;;;25.83;;
18360;SDS011;9308;48.550;9.108;2022-11-20T15:23:43;38.00;;;27.97;;
18360;SDS011;9308;48.550;9.108;2022-11-20T15:26:10;6.83;;;4.67;;
18360;SDS011;9308;48.550;9.108;2022-11-20T15:28:38;4.83;;;4.03;;
18360;SDS011;9308;48.550;9.108;2022-11-20T15:31:06;3.77;;;3.57;;
18360;SDS011;9308;48.550;9.108;2022-11-20T15:33:32;5.10;;;3.87;;
18360;SDS011;9308;48.550;9.108;2022-11-20T15:35:58;4.23;;;3.90;;
18360;SDS011;9308;48.550;9.108;2022-11-20T15:38:24;5.00;;;4.60;;
18360;SDS011;9308;48.550;9.108;2022-11-20T15:40:50;5.60;;;5.20;;
18360;SDS011;9308;48.550;9.108;2022-11-20T15:43:15;4.33;;;4.03;;
18360;SDS011;9308;48.550;9.108;2022-11-20T15:45:45;3.77;;;3.47;;
18360;SDS011;9308;48.550;9.108;2022-11-20T15:50:49;8.00;;;6.53;;
18360;SDS011;9308;48.550;9.108;2022-11-20T15:53:19;4.07;;;3.67;;
18360;SDS011;9308;48.550;9.108;2022-11-20T15:55:45;4.40;;;4.00;;
18360;SDS011;9308;48.550;9.108;2022-11-20T15:58:10;3.83;;;3.53;;
18360;SDS011;9308;48.550;9.108;2022-11-20T16:00:35;4.50;;;4.10;;
18360;SDS011;9308;48.550;9.108;2022-11-20T16:03:01;4.73;;;4.13;;
18360;SDS011;9308;48.550;9.108;2022-11-20T16:05:29;4.60;;;4.20;;
18360;SDS011;9308;48.550;9.108;2022-11-20T16:07:55;5.10;;;4.60;;
18360;SDS011;9308;48.550;9.108;2022-11-20T16:10:21;6.87;;;6.23;;
18360;SDS011;9308;48.550;9.108;2022-11-20T16:12:47;6.57;;;5.93;;
18360;SDS011;9308;48.550;9.108;2022-11-20T16:15:31;6.90;;;6.40;;
18360;SDS011;9308;48.550;9.108;2022-11-20T16:18:13;7.07;;;6.53;;
18360;SDS011;9308;48.550;9.108;2022-11-20T16:20:40;7.20;;;6.60;;
18360;SDS011;9308;48.550;9.108;2022-11-20T16:23:06;6.33;;;5.73;;